sensor_id;sensor_type;location;lat;lon;timestamp;pressure;altitude;pressure_sealevel;temperature;humidity
72428;BME280;60419;48.880;18.036;2023-08-24T00:00:52;99282.25;;;20.69;74.11
72428;BME280;60419;48.880;18.036;2023-08-24T00:03:38;99272.38;;;19.98;76.44
72428;BME280;60419;48.880;18.036;2023-08-24T00:06:23;99276.97;;;19.91;76.84
72428;BME280;60419;48.880;18.036;2023-08-24T00:09:08;99275.81;;;20.57;74.67
72428;BME280;60419;48.880;18.036;2023-08-24T00:11:54;99272.88;;;21.19;71.45
72428;BME280;60419;48.880;18.036;2023-08-24T00:14:39;99274.16;;;21.56;70.32
72428;BME280;60419;48.880;18.036;2023-08-24T00:17:24;99276.50;;;21.57;69.77
72428;BME280;60419;48.880;18.036;2023-08-24T00:20:10;99272.44;;;21.78;69.90
72428;BME280;60419;48.880;18.036;2023-08-24T00:22:55;99272.34;;;22.04;68.00
72428;BME280;60419;48.880;18.036;2023-08-24T00:25:41;99265.41;;;22.18;66.95
72428;BME280;60419;48.880;18.036;2023-08-24T00:28:26;99275.69;;;22.21;66.74
72428;BME280;60419;48.880;18.036;2023-08-24T00:31:12;99271.44;;;21.59;68.16
72428;BME280;60419;48.880;18.036;2023-08-24T00:33:58;99267.31;;;21.76;67.72
72428;BME280;60419;48.880;18.036;2023-08-24T00:36:43;99275.44;;;21.09;70.46
72428;BME280;60419;48.880;18.036;2023-08-24T00:39:28;99270.16;;;20.70;71.91
72428;BME280;60419;48.880;18.036;2023-08-24T00:42:14;99269.28;;;20.00;74.59
72428;BME280;60419;48.880;18.036;2023-08-24T00:45:00;99272.13;;;19.84;75.72
72428;BME280;60419;48.880;18.036;2023-08-24T00:47:46;99239.94;;;20.01;74.67
72428;BME280;60419;48.880;18.036;2023-08-24T00:50:32;99223.25;;;20.09;74.85
72428;BME280;60419;48.880;18.036;2023-08-24T00:53:18;99262.09;;;20.57;72.68
72428;BME280;60419;48.880;18.036;2023-08-24T00:56:04;99258.13;;;20.55;72.87
72428;BME280;60419;48.880;18.036;2023-08-24T00:58:50;99259.31;;;20.54;72.53
72428;BME280;60419;48.880;18.036;2023-08-24T01:01:39;99264.38;;;20.52;72.59
72428;BME280;60419;48.880;18.036;2023-08-24T01:04:24;99263.19;;;20.76;71.45
72428;BME280;60419;48.880;18.036;2023-08-24T01:07:10;99263.44;;;20.67;71.82
72428;BME280;60419;48.880;18.036;2023-08-24T01:09:56;99256.41;;;20.24;73.73
72428;BME280;60419;48.880;18.036;2023-08-24T01:12:52;99254.81;;;20.23;74.10
72428;BME280;60419;48.880;18.036;2023-08-24T01:18:38;99259.19;;;20.47;73.44
72428;BME280;60419;48.880;18.036;2023-08-24T01:21:25;99251.09;;;20.80;72.12
72428;BME280;60419;48.880;18.036;2023-08-24T01:24:19;99264.50;;;21.12;70.38
72428;BME280;60419;48.880;18.036;2023-08-24T01:27:08;99267.38;;;20.43;73.25
72428;BME280;60419;48.880;18.036;2023-08-24T01:29:55;99263.41;;;20.90;71.47
72428;BME280;60419;48.880;18.036;2023-08-24T01:32:42;99256.53;;;20.77;71.30
72428;BME280;60419;48.880;18.036;2023-08-24T01:35:28;99264.56;;;20.89;70.56
72428;BME280;60419;48.880;18.036;2023-08-24T01:38:14;99254.28;;;20.82;70.59
72428;BME280;60419;48.880;18.036;2023-08-24T01:43:52;99269.75;;;20.71;71.96
72428;BME280;60419;48.880;18.036;2023-08-24T01:46:39;99266.63;;;20.96;70.48
72428;BME280;60419;48.880;18.036;2023-08-24T01:49:26;99274.56;;;20.51;72.13
72428;BME280;60419;48.880;18.036;2023-08-24T01:52:13;99272.91;;;20.27;73.21
72428;BME280;60419;48.880;18.036;2023-08-24T01:54:58;99272.72;;;20.59;71.81
72428;BME280;60419;48.880;18.036;2023-08-24T01:57:44;99271.06;;;20.54;72.26
72428;BME280;60419;48.880;18.036;2023-08-24T02:00:29;99278.84;;;20.75;71.12
72428;BME280;60419;48.880;18.036;2023-08-24T02:03:15;99252.28;;;20.33;72.92
72428;BME280;60419;48.880;18.036;2023-08-24T02:06:00;99251.44;;;20.79;73.27
72428;BME280;60419;48.880;18.036;2023-08-24T02:08:46;99272.59;;;20.75;70.86
72428;BME280;60419;48.880;18.036;2023-08-24T02:11:31;99271.28;;;20.69;70.40
72428;BME280;60419;48.880;18.036;2023-08-24T02:14:16;99271.22;;;21.15;71.19
72428;BME280;60419;48.880;18.036;2023-08-24T02:17:02;99271.19;;;20.61;72.01
72428;BME280;60419;48.880;18.036;2023-08-24T02:19:48;99256.28;;;21.72;69.17
72428;BME280;60419;48.880;18.036;2023-08-24T02:22:34;99258.22;;;22.47;66.50
72428;BME280;60419;48.880;18.036;2023-08-24T02:25:19;99268.22;;;20.74;70.83
72428;BME280;60419;48.880;18.036;2023-08-24T02:28:05;99253.03;;;21.33;67.62
72428;BME280;60419;48.880;18.036;2023-08-24T02:30:50;99259.75;;;20.82;71.02
72428;BME280;60419;48.880;18.036;2023-08-24T02:33:36;99267.41;;;20.70;71.00
72428;BME280;60419;48.880;18.036;2023-08-24T02:36:21;99260.38;;;20.72;72.83
72428;BME280;60419;48.880;18.036;2023-08-24T02:39:07;99249.75;;;20.97;69.77
72428;BME280;60419;48.880;18.036;2023-08-24T02:41:52;99253.06;;;21.37;68.91
72428;BME280;60419;48.880;18.036;2023-08-24T02:44:38;99250.88;;;21.49;68.78
72428;BME280;60419;48.880;18.036;2023-08-24T02:47:23;99242.41;;;21.62;66.40
72428;BME280;60419;48.880;18.036;2023-08-24T02:50:09;99250.97;;;20.73;70.97
72428;BME280;60419;48.880;18.036;2023-08-24T02:52:54;99254.34;;;21.43;68.93
72428;BME280;60419;48.880;18.036;2023-08-24T02:55:40;99248.88;;;22.14;65.98
72428;BME280;60419;48.880;18.036;2023-08-24T02:58:25;99255.41;;;22.40;63.81
72428;BME280;60419;48.880;18.036;2023-08-24T03:01:12;99264.09;;;20.14;71.54
72428;BME280;60419;48.880;18.036;2023-08-24T03:03:57;99259.44;;;18.86;77.30
72428;BME280;60419;48.880;18.036;2023-08-24T03:06:43;99260.00;;;19.85;75.71
72428;BME280;60419;48.880;18.036;2023-08-24T03:09:29;99258.19;;;19.93;74.41
72428;BME280;60419;48.880;18.036;2023-08-24T03:12:15;99261.94;;;21.23;68.94
72428;BME280;60419;48.880;18.036;2023-08-24T03:15:00;99252.72;;;22.02;67.08
72428;BME280;60419;48.880;18.036;2023-08-24T03:17:45;99252.28;;;22.41;65.30
72428;BME280;60419;48.880;18.036;2023-08-24T03:20:32;99261.88;;;23.10;62.67
72428;BME280;60419;48.880;18.036;2023-08-24T03:23:17;99255.72;;;23.41;61.18
72428;BME280;60419;48.880;18.036;2023-08-24T03:26:03;99266.47;;;22.91;62.78
72428;BME280;60419;48.880;18.036;2023-08-24T03:28:48;99254.91;;;23.37;60.83
72428;BME280;60419;48.880;18.036;2023-08-24T03:31:34;99264.19;;;23.81;60.22
72428;BME280;60419;48.880;18.036;2023-08-24T03:34:19;99262.72;;;24.19;57.42
72428;BME280;60419;48.880;18.036;2023-08-24T03:37:06;99266.19;;;23.95;58.83
72428;BME280;60419;48.880;18.036;2023-08-24T03:39:51;99256.63;;;23.56;60.09
72428;BME280;60419;48.880;18.036;2023-08-24T03:42:36;99262.66;;;23.98;58.66
72428;BME280;60419;48.880;18.036;2023-08-24T03:45:22;99261.03;;;23.06;60.63
72428;BME280;60419;48.880;18.036;2023-08-24T03:48:07;99267.16;;;23.43;60.04
72428;BME280;60419;48.880;18.036;2023-08-24T03:50:56;99266.06;;;22.45;63.15
72428;BME280;60419;48.880;18.036;2023-08-24T03:53:42;99268.56;;;22.61;62.62
72428;BME280;60419;48.880;18.036;2023-08-24T03:56:28;99263.31;;;22.89;61.40
72428;BME280;60419;48.880;18.036;2023-08-24T03:59:13;99261.47;;;23.11;60.48
72428;BME280;60419;48.880;18.036;2023-08-24T04:02:00;99261.97;;;23.35;60.66
72428;BME280;60419;48.880;18.036;2023-08-24T04:04:48;99266.88;;;23.63;59.79
72428;BME280;60419;48.880;18.036;2023-08-24T04:07:33;99262.91;;;23.53;59.68
72428;BME280;60419;48.880;18.036;2023-08-24T04:10:21;99256.31;;;23.79;58.96
72428;BME280;60419;48.880;18.036;2023-08-24T04:13:06;99265.34;;;22.99;61.05
72428;BME280;60419;48.880;18.036;2023-08-24T04:15:52;99263.28;;;22.86;61.85
72428;BME280;60419;48.880;18.036;2023-08-24T04:18:37;99262.66;;;23.10;61.42
72428;BME280;60419;48.880;18.036;2023-08-24T04:21:25;99271.59;;;23.62;59.91
72428;BME280;60419;48.880;18.036;2023-08-24T04:24:10;99266.88;;;23.63;59.29
72428;BME280;60419;48.880;18.036;2023-08-24T04:26:56;99269.75;;;23.95;58.67
72428;BME280;60419;48.880;18.036;2023-08-24T04:29:41;99276.06;;;23.99;57.84
72428;BME280;60419;48.880;18.036;2023-08-24T04:32:27;99280.38;;;23.13;61.16
72428;BME280;60419;48.880;18.036;2023-08-24T04:35:13;99275.88;;;23.45;59.78
72428;BME280;60419;48.880;18.036;2023-08-24T04:37:58;99278.28;;;23.58;59.61
72428;BME280;60419;48.880;18.036;2023-08-24T04:40:49;99280.84;;;23.29;59.99
72428;BME280;60419;48.880;18.036;2023-08-24T04:43:36;99279.88;;;23.62;58.77
72428;BME280;60419;48.880;18.036;2023-08-24T04:46:21;99277.53;;;23.68;58.71
72428;BME280;60419;48.880;18.036;2023-08-24T04:49:07;99276.66;;;23.46;59.48
72428;BME280;60419;48.880;18.036;2023-08-24T04:51:52;99285.09;;;22.64;62.24
72428;BME280;60419;48.880;18.036;2023-08-24T04:54:37;99286.47;;;21.69;65.38
72428;BME280;60419;48.880;18.036;2023-08-24T04:57:23;99286.44;;;22.36;61.92
72428;BME280;60419;48.880;18.036;2023-08-24T05:00:08;99283.97;;;22.28;63.09
72428;BME280;60419;48.880;18.036;2023-08-24T05:02:55;99293.13;;;22.80;60.80
72428;BME280;60419;48.880;18.036;2023-08-24T05:05:40;99292.06;;;22.95;60.58
72428;BME280;60419;48.880;18.036;2023-08-24T05:08:26;99290.63;;;23.12;60.86
72428;BME280;60419;48.880;18.036;2023-08-24T05:11:12;99290.06;;;22.44;63.03
72428;BME280;60419;48.880;18.036;2023-08-24T05:13:58;99293.44;;;22.71;63.22
72428;BME280;60419;48.880;18.036;2023-08-24T05:16:44;99296.59;;;23.29;59.54
72428;BME280;60419;48.880;18.036;2023-08-24T05:19:29;99302.66;;;23.52;58.54
72428;BME280;60419;48.880;18.036;2023-08-24T05:22:14;99298.78;;;21.79;63.11
72428;BME280;60419;48.880;18.036;2023-08-24T05:25:00;99297.56;;;22.47;63.06
72428;BME280;60419;48.880;18.036;2023-08-24T05:27:45;99302.28;;;22.50;61.54
72428;BME280;60419;48.880;18.036;2023-08-24T05:30:30;99300.66;;;22.42;63.59
72428;BME280;60419;48.880;18.036;2023-08-24T05:33:16;99301.69;;;23.19;60.13
72428;BME280;60419;48.880;18.036;2023-08-24T05:36:01;99302.78;;;21.24;67.52
72428;BME280;60419;48.880;18.036;2023-08-24T05:38:47;99311.66;;;20.68;68.34
72428;BME280;60419;48.880;18.036;2023-08-24T05:41:33;99311.38;;;21.23;68.67
72428;BME280;60419;48.880;18.036;2023-08-24T05:44:19;99311.25;;;21.72;64.53
72428;BME280;60419;48.880;18.036;2023-08-24T05:47:05;99320.84;;;21.02;69.03
72428;BME280;60419;48.880;18.036;2023-08-24T05:49:50;99320.50;;;20.81;67.14
72428;BME280;60419;48.880;18.036;2023-08-24T05:52:35;99308.66;;;20.31;68.98
72428;BME280;60419;48.880;18.036;2023-08-24T05:55:21;99316.31;;;20.22;69.34
72428;BME280;60419;48.880;18.036;2023-08-24T05:58:06;99318.78;;;19.33;73.13
72428;BME280;60419;48.880;18.036;2023-08-24T06:00:58;99316.91;;;19.37;74.96
72428;BME280;60419;48.880;18.036;2023-08-24T06:03:44;99326.75;;;20.55;72.09
72428;BME280;60419;48.880;18.036;2023-08-24T06:06:29;99329.84;;;21.53;67.22
72428;BME280;60419;48.880;18.036;2023-08-24T06:09:14;99328.75;;;19.57;73.61
72428;BME280;60419;48.880;18.036;2023-08-24T06:12:03;99317.06;;;19.80;74.80
72428;BME280;60419;48.880;18.036;2023-08-24T06:14:48;99310.25;;;19.54;75.86
72428;BME280;60419;48.880;18.036;2023-08-24T06:17:34;99324.00;;;20.78;70.96
72428;BME280;60419;48.880;18.036;2023-08-24T06:20:20;99318.50;;;20.55;72.06
72428;BME280;60419;48.880;18.036;2023-08-24T06:23:06;99323.28;;;18.74;77.23
72428;BME280;60419;48.880;18.036;2023-08-24T06:25:52;99319.59;;;19.53;74.90
72428;BME280;60419;48.880;18.036;2023-08-24T06:28:38;99321.16;;;19.70;74.32
72428;BME280;60419;48.880;18.036;2023-08-24T06:31:23;99322.09;;;19.77;73.77
72428;BME280;60419;48.880;18.036;2023-08-24T06:34:08;99328.84;;;20.42;71.85
72428;BME280;60419;48.880;18.036;2023-08-24T06:36:54;99327.41;;;21.78;67.37
72428;BME280;60419;48.880;18.036;2023-08-24T06:39:39;99319.34;;;20.16;72.42
72428;BME280;60419;48.880;18.036;2023-08-24T06:42:25;99319.34;;;19.58;75.61
72428;BME280;60419;48.880;18.036;2023-08-24T06:45:10;99318.44;;;20.32;71.81
72428;BME280;60419;48.880;18.036;2023-08-24T06:47:56;99318.91;;;21.03;69.58
72428;BME280;60419;48.880;18.036;2023-08-24T06:50:41;99302.47;;;22.27;67.08
72428;BME280;60419;48.880;18.036;2023-08-24T06:53:26;99299.78;;;22.75;63.31
72428;BME280;60419;48.880;18.036;2023-08-24T06:56:12;99299.00;;;21.10;68.31
72428;BME280;60419;48.880;18.036;2023-08-24T06:58:59;99300.72;;;22.12;65.36
72428;BME280;60419;48.880;18.036;2023-08-24T07:01:44;99293.59;;;22.86;62.84
72428;BME280;60419;48.880;18.036;2023-08-24T07:04:32;99300.69;;;23.53;61.62
72428;BME280;60419;48.880;18.036;2023-08-24T07:07:19;99301.88;;;23.55;61.51
72428;BME280;60419;48.880;18.036;2023-08-24T07:10:05;99296.47;;;23.73;60.67
72428;BME280;60419;48.880;18.036;2023-08-24T07:12:51;99300.72;;;22.94;62.44
72428;BME280;60419;48.880;18.036;2023-08-24T07:15:36;99307.50;;;22.18;65.30
72428;BME280;60419;48.880;18.036;2023-08-24T07:18:22;99308.78;;;20.61;70.75
72428;BME280;60419;48.880;18.036;2023-08-24T07:21:07;99306.69;;;21.54;69.32
72428;BME280;60419;48.880;18.036;2023-08-24T07:23:52;99303.81;;;22.89;65.12
72428;BME280;60419;48.880;18.036;2023-08-24T07:26:40;99296.63;;;23.32;64.27
72428;BME280;60419;48.880;18.036;2023-08-24T07:29:26;99302.78;;;23.77;62.69
72428;BME280;60419;48.880;18.036;2023-08-24T07:32:12;99298.47;;;23.87;61.33
72428;BME280;60419;48.880;18.036;2023-08-24T07:34:57;99298.28;;;22.03;66.50
72428;BME280;60419;48.880;18.036;2023-08-24T07:37:44;99296.06;;;22.16;67.35
72428;BME280;60419;48.880;18.036;2023-08-24T07:40:30;99305.72;;;23.40;64.03
72428;BME280;60419;48.880;18.036;2023-08-24T07:43:15;99292.47;;;23.56;62.01
72428;BME280;60419;48.880;18.036;2023-08-24T07:46:01;99299.16;;;22.96;63.62
72428;BME280;60419;48.880;18.036;2023-08-24T07:48:46;99298.25;;;22.78;64.14
72428;BME280;60419;48.880;18.036;2023-08-24T07:51:33;99297.72;;;22.69;64.58
72428;BME280;60419;48.880;18.036;2023-08-24T07:54:18;99292.03;;;22.88;63.42
72428;BME280;60419;48.880;18.036;2023-08-24T07:57:07;99290.84;;;22.93;64.00
72428;BME280;60419;48.880;18.036;2023-08-24T07:59:52;99290.31;;;23.28;61.81
72428;BME280;60419;48.880;18.036;2023-08-24T08:02:38;99288.81;;;23.38;60.79
72428;BME280;60419;48.880;18.036;2023-08-24T08:05:23;99291.31;;;22.54;59.63
72428;BME280;60419;48.880;18.036;2023-08-24T08:08:08;99288.34;;;23.29;62.32
72428;BME280;60419;48.880;18.036;2023-08-24T08:11:01;99278.91;;;24.28;59.13
72428;BME280;60419;48.880;18.036;2023-08-24T08:13:47;99285.31;;;23.44;58.09
72428;BME280;60419;48.880;18.036;2023-08-24T08:16:32;99288.19;;;23.70;56.86
72428;BME280;60419;48.880;18.036;2023-08-24T08:19:18;99281.25;;;23.28;58.61
72428;BME280;60419;48.880;18.036;2023-08-24T08:22:04;99282.25;;;23.71;57.84
72428;BME280;60419;48.880;18.036;2023-08-24T08:24:50;99291.16;;;24.48;56.45
72428;BME280;60419;48.880;18.036;2023-08-24T08:27:35;99276.53;;;25.09;53.39
72428;BME280;60419;48.880;18.036;2023-08-24T08:30:21;99283.94;;;24.04;55.69
72428;BME280;60419;48.880;18.036;2023-08-24T08:33:06;99279.56;;;23.89;55.60
72428;BME280;60419;48.880;18.036;2023-08-24T08:35:52;99283.09;;;23.89;56.58
72428;BME280;60419;48.880;18.036;2023-08-24T08:38:37;99286.31;;;24.09;56.47
72428;BME280;60419;48.880;18.036;2023-08-24T08:41:27;99269.84;;;24.70;54.93
72428;BME280;60419;48.880;18.036;2023-08-24T08:44:15;99278.44;;;25.37;52.57
72428;BME280;60419;48.880;18.036;2023-08-24T08:47:00;99282.47;;;25.11;53.42
72428;BME280;60419;48.880;18.036;2023-08-24T08:49:48;99275.97;;;25.75;52.82
72428;BME280;60419;48.880;18.036;2023-08-24T08:52:34;99260.72;;;26.19;50.63
72428;BME280;60419;48.880;18.036;2023-08-24T08:55:20;99273.53;;;25.88;50.36
72428;BME280;60419;48.880;18.036;2023-08-24T08:58:06;99266.56;;;26.35;48.20
72428;BME280;60419;48.880;18.036;2023-08-24T09:00:52;99263.03;;;25.39;50.80
72428;BME280;60419;48.880;18.036;2023-08-24T09:03:39;99262.19;;;25.68;49.78
72428;BME280;60419;48.880;18.036;2023-08-24T09:06:25;99268.53;;;25.54;48.71
72428;BME280;60419;48.880;18.036;2023-08-24T09:09:11;99266.09;;;26.44;47.46
72428;BME280;60419;48.880;18.036;2023-08-24T09:11:57;99255.81;;;26.41;46.39
72428;BME280;60419;48.880;18.036;2023-08-24T09:14:42;99249.13;;;26.35;46.23
72428;BME280;60419;48.880;18.036;2023-08-24T09:17:28;99250.34;;;26.34;45.38
72428;BME280;60419;48.880;18.036;2023-08-24T09:20:13;99250.63;;;25.83;47.99
72428;BME280;60419;48.880;18.036;2023-08-24T09:23:00;99240.25;;;26.02;49.42
72428;BME280;60419;48.880;18.036;2023-08-24T09:25:46;99247.78;;;25.98;46.70
72428;BME280;60419;48.880;18.036;2023-08-24T09:28:34;99235.59;;;26.92;45.33
72428;BME280;60419;48.880;18.036;2023-08-24T09:31:22;99251.81;;;27.32;44.80
72428;BME280;60419;48.880;18.036;2023-08-24T09:34:08;99243.06;;;26.54;45.47
72428;BME280;60419;48.880;18.036;2023-08-24T09:36:53;99243.09;;;26.47;45.35
72428;BME280;60419;48.880;18.036;2023-08-24T09:39:39;99232.47;;;27.25;45.12
72428;BME280;60419;48.880;18.036;2023-08-24T09:42:24;99232.09;;;27.57;45.02
72428;BME280;60419;48.880;18.036;2023-08-24T09:45:12;99227.16;;;27.72;44.25
72428;BME280;60419;48.880;18.036;2023-08-24T09:48:00;99227.06;;;27.79;43.08
72428;BME280;60419;48.880;18.036;2023-08-24T09:50:47;99224.53;;;26.92;44.56
72428;BME280;60419;48.880;18.036;2023-08-24T09:53:33;99221.13;;;27.12;45.42
72428;BME280;60419;48.880;18.036;2023-08-24T09:56:25;99219.59;;;27.76;43.98
72428;BME280;60419;48.880;18.036;2023-08-24T09:59:17;99207.09;;;27.61;43.59
72428;BME280;60419;48.880;18.036;2023-08-24T10:02:03;99218.31;;;26.29;46.53
72428;BME280;60419;48.880;18.036;2023-08-24T10:04:54;99211.50;;;26.86;44.90
72428;BME280;60419;48.880;18.036;2023-08-24T10:07:41;99215.88;;;27.55;44.87
72428;BME280;60419;48.880;18.036;2023-08-24T10:10:27;99208.28;;;26.49;44.93
72428;BME280;60419;48.880;18.036;2023-08-24T10:13:18;99215.06;;;26.90;44.02
72428;BME280;60419;48.880;18.036;2023-08-24T10:16:08;99210.44;;;27.48;44.27
72428;BME280;60419;48.880;18.036;2023-08-24T10:18:55;99210.53;;;26.62;44.55
72428;BME280;60419;48.880;18.036;2023-08-24T10:21:42;99202.06;;;26.80;44.32
72428;BME280;60419;48.880;18.036;2023-08-24T10:24:28;99204.06;;;26.76;44.51
72428;BME280;60419;48.880;18.036;2023-08-24T10:27:14;99197.25;;;27.56;42.90
72428;BME280;60419;48.880;18.036;2023-08-24T10:30:00;99185.13;;;28.00;42.60
72428;BME280;60419;48.880;18.036;2023-08-24T10:32:46;99185.91;;;28.01;41.70
72428;BME280;60419;48.880;18.036;2023-08-24T10:35:33;99178.81;;;27.96;42.69
72428;BME280;60419;48.880;18.036;2023-08-24T10:38:31;99184.75;;;28.49;42.05
72428;BME280;60419;48.880;18.036;2023-08-24T10:41:19;99177.75;;;27.90;41.91
72428;BME280;60419;48.880;18.036;2023-08-24T10:44:05;99179.31;;;28.42;42.18
72428;BME280;60419;48.880;18.036;2023-08-24T10:47:22;99160.34;;;28.37;40.88
72428;BME280;60419;48.880;18.036;2023-08-24T10:50:11;99168.28;;;28.15;40.45
72428;BME280;60419;48.880;18.036;2023-08-24T10:52:57;99169.03;;;27.88;40.39
72428;BME280;60419;48.880;18.036;2023-08-24T10:55:42;99161.63;;;28.32;40.58
72428;BME280;60419;48.880;18.036;2023-08-24T10:58:33;99164.78;;;27.84;41.39
72428;BME280;60419;48.880;18.036;2023-08-24T11:01:19;99145.84;;;28.02;40.15
72428;BME280;60419;48.880;18.036;2023-08-24T11:04:07;99156.25;;;28.21;39.17
72428;BME280;60419;48.880;18.036;2023-08-24T11:06:57;99164.56;;;28.45;38.76
72428;BME280;60419;48.880;18.036;2023-08-24T11:09:47;99153.28;;;28.99;38.74
72428;BME280;60419;48.880;18.036;2023-08-24T11:15:49;99154.06;;;28.09;39.79
72428;BME280;60419;48.880;18.036;2023-08-24T11:18:43;99130.38;;;28.01;39.53
72428;BME280;60419;48.880;18.036;2023-08-24T11:21:28;99145.47;;;27.46;40.29
72428;BME280;60419;48.880;18.036;2023-08-24T11:24:15;99147.22;;;27.32;40.95
72428;BME280;60419;48.880;18.036;2023-08-24T11:27:02;99140.25;;;27.78;39.42
72428;BME280;60419;48.880;18.036;2023-08-24T11:29:58;99127.22;;;27.75;40.34
72428;BME280;60419;48.880;18.036;2023-08-24T11:32:44;99134.66;;;27.82;40.09
72428;BME280;60419;48.880;18.036;2023-08-24T11:35:36;99122.19;;;27.94;39.81
72428;BME280;60419;48.880;18.036;2023-08-24T11:38:22;99134.50;;;27.66;40.09
72428;BME280;60419;48.880;18.036;2023-08-24T11:41:14;99147.19;;;28.64;39.25
72428;BME280;60419;48.880;18.036;2023-08-24T11:44:00;99143.34;;;28.78;38.76
72428;BME280;60419;48.880;18.036;2023-08-24T11:46:46;99136.22;;;28.10;39.49
72428;BME280;60419;48.880;18.036;2023-08-24T11:49:32;99129.81;;;28.37;38.65
72428;BME280;60419;48.880;18.036;2023-08-24T11:52:18;99130.94;;;27.65;40.12
72428;BME280;60419;48.880;18.036;2023-08-24T11:55:04;99122.63;;;28.83;38.76
72428;BME280;60419;48.880;18.036;2023-08-24T11:57:50;99118.44;;;28.75;39.42
72428;BME280;60419;48.880;18.036;2023-08-24T12:00:36;99126.16;;;28.40;38.38
72428;BME280;60419;48.880;18.036;2023-08-24T12:03:21;99125.81;;;28.81;38.45
72428;BME280;60419;48.880;18.036;2023-08-24T12:06:15;99117.91;;;29.20;37.09
72428;BME280;60419;48.880;18.036;2023-08-24T12:09:00;99118.75;;;28.77;37.44
72428;BME280;60419;48.880;18.036;2023-08-24T12:11:48;99109.19;;;28.98;37.53
72428;BME280;60419;48.880;18.036;2023-08-24T12:14:43;99091.66;;;29.73;36.60
72428;BME280;60419;48.880;18.036;2023-08-24T12:17:29;99099.81;;;30.46;36.62
72428;BME280;60419;48.880;18.036;2023-08-24T12:20:19;99107.50;;;29.04;37.16
72428;BME280;60419;48.880;18.036;2023-08-24T12:23:06;99106.44;;;29.54;36.59
72428;BME280;60419;48.880;18.036;2023-08-24T12:25:54;99113.44;;;28.86;36.89
72428;BME280;60419;48.880;18.036;2023-08-24T12:28:40;99097.03;;;28.92;37.01
72428;BME280;60419;48.880;18.036;2023-08-24T12:31:26;99102.72;;;29.04;37.02
72428;BME280;60419;48.880;18.036;2023-08-24T12:34:14;99091.56;;;28.88;37.47
72428;BME280;60419;48.880;18.036;2023-08-24T12:37:00;99095.13;;;28.88;36.90
72428;BME280;60419;48.880;18.036;2023-08-24T12:39:45;99089.59;;;29.25;37.42
72428;BME280;60419;48.880;18.036;2023-08-24T12:42:31;99078.66;;;28.78;37.47
72428;BME280;60419;48.880;18.036;2023-08-24T12:45:17;99081.50;;;28.94;36.96
72428;BME280;60419;48.880;18.036;2023-08-24T12:48:02;99080.53;;;28.41;37.75
72428;BME280;60419;48.880;18.036;2023-08-24T12:50:48;99074.13;;;27.50;39.14
72428;BME280;60419;48.880;18.036;2023-08-24T12:53:33;99072.91;;;28.45;37.87
72428;BME280;60419;48.880;18.036;2023-08-24T12:56:18;99075.94;;;28.94;36.25
72428;BME280;60419;48.880;18.036;2023-08-24T12:59:04;99066.03;;;28.73;36.73
72428;BME280;60419;48.880;18.036;2023-08-24T13:01:50;99053.97;;;28.80;36.86
72428;BME280;60419;48.880;18.036;2023-08-24T13:04:35;99062.97;;;28.68;37.04
72428;BME280;60419;48.880;18.036;2023-08-24T13:07:20;99060.16;;;29.27;35.74
72428;BME280;60419;48.880;18.036;2023-08-24T13:10:06;99061.84;;;29.90;35.50
72428;BME280;60419;48.880;18.036;2023-08-24T13:12:52;99043.22;;;30.33;34.88
72428;BME280;60419;48.880;18.036;2023-08-24T13:15:37;99041.88;;;30.54;34.27
72428;BME280;60419;48.880;18.036;2023-08-24T13:18:22;99046.69;;;31.21;34.00
72428;BME280;60419;48.880;18.036;2023-08-24T13:21:08;99049.25;;;30.60;33.63
72428;BME280;60419;48.880;18.036;2023-08-24T13:23:53;99047.28;;;29.99;35.19
72428;BME280;60419;48.880;18.036;2023-08-24T13:26:39;99033.91;;;30.10;34.97
72428;BME280;60419;48.880;18.036;2023-08-24T13:29:24;99033.81;;;30.43;34.55
72428;BME280;60419;48.880;18.036;2023-08-24T13:32:09;99034.19;;;30.29;34.25
72428;BME280;60419;48.880;18.036;2023-08-24T13:34:55;99018.41;;;30.80;34.86
72428;BME280;60419;48.880;18.036;2023-08-24T13:37:41;99015.22;;;29.45;35.37
72428;BME280;60419;48.880;18.036;2023-08-24T13:40:26;99014.91;;;28.87;36.55
72428;BME280;60419;48.880;18.036;2023-08-24T13:43:11;99007.72;;;29.42;36.47
72428;BME280;60419;48.880;18.036;2023-08-24T13:45:57;99011.81;;;30.32;35.44
72428;BME280;60419;48.880;18.036;2023-08-24T13:48:42;99002.22;;;30.04;35.23
72428;BME280;60419;48.880;18.036;2023-08-24T13:51:28;99002.16;;;30.21;35.19
72428;BME280;60419;48.880;18.036;2023-08-24T13:54:17;99002.94;;;29.92;34.47
72428;BME280;60419;48.880;18.036;2023-08-24T13:57:03;98997.22;;;30.12;34.99
72428;BME280;60419;48.880;18.036;2023-08-24T13:59:48;98993.38;;;30.51;33.71
72428;BME280;60419;48.880;18.036;2023-08-24T14:02:34;98995.25;;;31.09;32.70
72428;BME280;60419;48.880;18.036;2023-08-24T14:05:19;98989.31;;;31.45;32.45
72428;BME280;60419;48.880;18.036;2023-08-24T14:08:04;99000.84;;;31.82;32.06
72428;BME280;60419;48.880;18.036;2023-08-24T14:10:51;99003.59;;;31.60;31.83
72428;BME280;60419;48.880;18.036;2023-08-24T14:13:37;98969.56;;;31.53;32.04
72428;BME280;60419;48.880;18.036;2023-08-24T14:16:22;98994.19;;;30.65;32.81
72428;BME280;60419;48.880;18.036;2023-08-24T14:19:08;98977.81;;;30.79;33.17
72428;BME280;60419;48.880;18.036;2023-08-24T14:21:53;98982.06;;;30.71;32.85
72428;BME280;60419;48.880;18.036;2023-08-24T14:24:39;98991.88;;;30.34;33.51
72428;BME280;60419;48.880;18.036;2023-08-24T14:27:24;98985.09;;;31.28;31.98
72428;BME280;60419;48.880;18.036;2023-08-24T14:30:10;98985.53;;;31.39;31.01
72428;BME280;60419;48.880;18.036;2023-08-24T14:32:55;98991.59;;;30.99;30.34
72428;BME280;60419;48.880;18.036;2023-08-24T14:35:41;98983.31;;;31.34;29.92
72428;BME280;60419;48.880;18.036;2023-08-24T14:38:27;98985.69;;;32.18;29.14